Time;durP1;ratioP1;P1;durP2;ratioP2;P2;SDS_P1;SDS_P2;PMS_P1;PMS_P2;Temp;Humidity;BMP_temperature;BMP_pressure;BME280_temperature;BME280_humidity;BME280_pressure;Samples;Min_cycle;Max_cycle;Signal;HPM_P1;HPM_P2
2023/03/15 00:01:53;;;;;;;1.17;0.60;;;5.00;83.70;;;;;;4983666;28;20207;-63
2023/03/15 00:04:20;;;;;;;0.60;0.60;;;5.00;83.80;;;;;;4981991;28;20138;-62
2023/03/15 00:06:46;;;;;;;1.42;0.63;;;5.00;83.30;;;;;;4985904;28;20034;-62
2023/03/15 00:09:11;;;;;;;1.48;0.65;;;5.00;83.20;;;;;;4982179;28;20034;-63
2023/03/15 00:11:37;;;;;;;1.08;0.60;;;4.90;83.10;;;;;;4978299;28;20052;-63
2023/03/15 00:14:04;;;;;;;1.17;0.80;;;5.00;83.20;;;;;;4976440;28;20039;-64
2023/03/15 00:16:31;;;;;;;0.90;0.40;;;5.00;83.30;;;;;;4977344;28;20117;-63
2023/03/15 00:18:57;;;;;;;1.10;0.40;;;5.00;83.10;;;;;;4977289;28;20743;-62
2023/03/15 00:21:22;;;;;;;0.38;0.35;;;5.00;83.20;;;;;;4982567;28;20037;-63
2023/03/15 00:23:48;;;;;;;0.65;0.43;;;5.00;83.30;;;;;;4982387;28;20158;-62
2023/03/15 00:26:14;;;;;;;0.50;0.50;;;5.00;83.30;;;;;;4984347;28;20034;-62
2023/03/15 00:28:40;;;;;;;0.40;0.40;;;5.00;83.50;;;;;;4979894;28;20041;-63
2023/03/15 00:31:14;;;;;;;0.75;0.60;;;4.90;83.60;;;;;;4981501;28;20054;-61
2023/03/15 00:33:40;;;;;;;1.60;0.40;;;4.90;83.90;;;;;;4987643;28;20042;-61
2023/03/15 00:36:08;;;;;;;1.42;0.70;;;4.90;84.10;;;;;;4983338;28;20049;-62
2023/03/15 00:38:34;;;;;;;1.40;0.70;;;4.90;84.30;;;;;;4979552;28;20034;-63
2023/03/15 00:41:05;;;;;;;0.60;0.60;;;4.80;84.20;;;;;;4977858;28;20038;-63
2023/03/15 00:43:30;;;;;;;0.90;0.57;;;4.80;85.20;;;;;;4981169;28;20046;-63
2023/03/15 00:45:57;;;;;;;2.58;0.70;;;4.70;84.90;;;;;;4981821;28;20052;-62
2023/03/15 00:48:23;;;;;;;1.05;0.68;;;4.80;85.00;;;;;;4980064;28;20026;-63
2023/03/15 00:50:48;;;;;;;0.40;0.40;;;4.70;84.60;;;;;;4981125;28;20571;-63
2023/03/15 00:53:14;;;;;;;0.40;0.40;;;4.70;84.40;;;;;;4985456;28;20042;-62
2023/03/15 00:55:39;;;;;;;0.47;0.47;;;4.70;84.40;;;;;;4980617;28;20038;-62
2023/03/15 00:58:05;;;;;;;1.02;0.50;;;4.70;84.00;;;;;;4981662;28;20664;-63
2023/03/15 01:00:30;;;;;;;1.05;0.60;;;4.60;84.00;;;;;;4982678;28;20360;-62
2023/03/15 01:02:56;;;;;;;0.68;0.50;;;4.60;83.90;;;;;;4987810;28;20182;-63
2023/03/15 01:05:22;;;;;;;1.00;0.60;;;4.50;83.70;;;;;;4984398;28;20142;-63
2023/03/15 01:07:48;;;;;;;0.45;0.45;;;4.50;83.30;;;;;;4982208;28;20026;-63
2023/03/15 01:10:14;;;;;;;0.85;0.52;;;4.40;82.90;;;;;;4982354;28;20122;-62
2023/03/15 01:12:40;;;;;;;0.50;0.50;;;4.40;82.80;;;;;;4981151;28;20061;-61
2023/03/15 01:15:10;;;;;;;0.95;0.60;;;4.30;82.30;;;;;;4979900;28;20030;-61
2023/03/15 01:17:36;;;;;;;1.67;0.70;;;4.20;82.00;;;;;;4980914;28;20030;-63
2023/03/15 01:20:04;;;;;;;0.77;0.77;;;4.20;81.80;;;;;;4979476;28;20833;-62
2023/03/15 01:22:29;;;;;;;1.00;0.70;;;4.10;82.00;;;;;;4981275;28;20074;-63
2023/03/15 01:24:55;;;;;;;0.90;0.80;;;4.10;82.10;;;;;;4981576;28;20122;-61
2023/03/15 01:27:21;;;;;;;1.10;0.90;;;4.00;82.10;;;;;;4986067;28;20031;-62
2023/03/15 01:29:46;;;;;;;1.20;1.10;;;4.00;81.90;;;;;;4981985;28;20297;-62
2023/03/15 01:32:12;;;;;;;1.48;1.13;;;3.90;81.80;;;;;;4987974;28;20038;-61
2023/03/15 01:34:37;;;;;;;1.40;1.30;;;3.90;82.10;;;;;;4985274;28;20450;-62
2023/03/15 01:37:03;;;;;;;2.42;1.42;;;3.90;82.30;;;;;;4982852;28;20117;-63
2023/03/15 01:39:30;;;;;;;1.48;1.38;;;3.80;82.50;;;;;;4980514;28;20040;-63
2023/03/15 01:41:55;;;;;;;3.55;1.85;;;3.80;82.60;;;;;;4980703;28;20192;-60
2023/03/15 01:44:22;;;;;;;2.97;2.20;;;3.80;83.20;;;;;;4979579;28;20042;-62
2023/03/15 01:46:48;;;;;;;3.83;2.22;;;3.70;83.10;;;;;;4977323;28;20049;-63
2023/03/15 01:49:23;;;;;;;4.97;2.70;;;3.70;83.50;;;;;;4977069;28;20041;-63
2023/03/15 01:51:58;;;;;;;2.78;2.58;;;3.70;84.00;;;;;;4979815;28;20406;-61
2023/03/15 01:54:44;;;;;;;3.50;2.58;;;3.60;83.70;;;;;;4981811;28;20038;-61
2023/03/15 01:57:21;;;;;;;3.95;2.70;;;3.60;84.60;;;;;;4980989;28;20034;-62
2023/03/15 02:00:07;;;;;;;5.13;3.10;;;3.50;84.50;;;;;;4976954;28;20042;-62
2023/03/15 02:02:32;;;;;;;3.30;2.67;;;3.50;84.60;;;;;;4979360;28;20037;-60
2023/03/15 02:05:10;;;;;;;4.72;3.10;;;3.50;84.00;;;;;;4979388;28;20038;-61
2023/03/15 02:07:37;;;;;;;5.85;3.10;;;3.40;84.40;;;;;;4981999;28;20034;-61
2023/03/15 02:10:08;;;;;;;2.80;2.40;;;3.40;84.20;;;;;;4981376;28;20041;-62
2023/03/15 02:12:37;;;;;;;5.07;2.72;;;3.40;83.90;;;;;;4977373;28;20068;-61
2023/03/15 02:15:06;;;;;;;5.22;2.63;;;3.40;83.70;;;;;;4981459;28;20552;-61
2023/03/15 02:17:36;;;;;;;5.03;3.05;;;3.40;83.70;;;;;;4980975;28;20129;-60
2023/03/15 02:20:29;;;;;;;3.92;2.80;;;3.40;83.60;;;;;;4980290;28;20039;-61
2023/03/15 02:22:57;;;;;;;6.40;2.78;;;3.40;83.50;;;;;;4979210;28;20510;-60
2023/03/15 02:25:33;;;;;;;3.30;2.80;;;3.40;83.20;;;;;;4983172;28;20129;-62
2023/03/15 02:28:02;;;;;;;7.70;4.07;;;3.40;83.50;;;;;;4977929;28;20570;-61
2023/03/15 02:30:27;;;;;;;7.03;3.50;;;3.50;83.30;;;;;;4975081;28;20085;-62
2023/03/15 02:32:53;;;;;;;5.38;2.88;;;3.50;83.40;;;;;;4982165;28;20058;-61
2023/03/15 02:35:27;;;;;;;4.47;2.80;;;3.50;83.50;;;;;;4982182;28;20456;-63
2023/03/15 02:37:52;;;;;;;3.92;3.10;;;3.50;83.40;;;;;;4977856;28;20038;-63
2023/03/15 02:40:22;;;;;;;6.13;2.75;;;3.50;83.20;;;;;;4980698;28;20042;-62
2023/03/15 02:42:53;;;;;;;4.47;2.70;;;3.50;83.20;;;;;;4976872;28;20057;-62
2023/03/15 02:45:20;;;;;;;6.35;3.38;;;3.60;83.20;;;;;;4978746;28;20034;-62
2023/03/15 02:47:47;;;;;;;8.35;3.80;;;3.60;83.10;;;;;;4978325;28;20030;-62
2023/03/15 02:50:13;;;;;;;6.30;3.15;;;3.60;83.20;;;;;;4970983;28;20042;-60
2023/03/15 02:52:38;;;;;;;6.63;3.42;;;3.60;82.90;;;;;;4977476;28;20041;-61
2023/03/15 02:55:05;;;;;;;5.00;3.33;;;3.60;82.50;;;;;;4977362;28;20035;-61
2023/03/15 02:57:30;;;;;;;9.88;4.00;;;3.60;82.40;;;;;;4980611;28;20030;-62
2023/03/15 02:59:56;;;;;;;6.00;3.80;;;3.60;82.50;;;;;;4976450;28;20038;-60
2023/03/15 03:02:22;;;;;;;7.80;4.28;;;3.60;82.10;;;;;;4978883;28;20034;-62
2023/03/15 03:04:48;;;;;;;7.88;4.18;;;3.60;82.00;;;;;;4978352;28;20034;-62
2023/03/15 03:07:14;;;;;;;6.10;3.95;;;3.60;81.40;;;;;;4979343;28;21055;-62
2023/03/15 03:09:39;;;;;;;10.20;4.38;;;3.60;81.10;;;;;;4980189;28;20227;-59
2023/03/15 03:12:06;;;;;;;8.70;4.22;;;3.50;80.90;;;;;;4978982;28;20031;-62
2023/03/15 03:14:31;;;;;;;12.57;4.50;;;3.50;80.60;;;;;;4977730;28;20132;-62
2023/03/15 03:16:57;;;;;;;9.60;4.07;;;3.60;80.90;;;;;;4979316;28;20157;-61
2023/03/15 03:19:25;;;;;;;10.43;4.38;;;3.50;81.10;;;;;;4979155;28;20070;-61
2023/03/15 03:21:52;;;;;;;9.30;4.28;;;3.60;81.50;;;;;;4978585;28;20045;-62
2023/03/15 03:24:18;;;;;;;12.20;4.72;;;3.60;81.60;;;;;;4980607;28;20042;-61
2023/03/15 03:26:46;;;;;;;7.38;4.15;;;3.60;81.30;;;;;;4981396;28;20096;-61
2023/03/15 03:29:15;;;;;;;10.27;4.47;;;3.60;80.60;;;;;;4984155;28;20042;-60
2023/03/15 03:31:41;;;;;;;8.82;4.30;;;3.60;80.20;;;;;;4983733;28;20038;-60
2023/03/15 03:34:08;;;;;;;7.68;3.90;;;3.60;80.10;;;;;;4983165;28;20469;-61
2023/03/15 03:36:34;;;;;;;9.60;4.47;;;3.60;80.20;;;;;;4984278;28;20038;-62
2023/03/15 03:39:00;;;;;;;8.77;4.38;;;3.60;80.20;;;;;;4983884;28;20055;-61
2023/03/15 03:41:26;;;;;;;10.52;4.63;;;3.60;80.60;;;;;;4980311;28;20035;-60
2023/03/15 03:43:52;;;;;;;9.73;4.25;;;3.60;80.60;;;;;;4988005;28;20050;-60
2023/03/15 03:46:17;;;;;;;8.93;4.00;;;3.60;80.60;;;;;;4986729;28;20125;-60
2023/03/15 03:48:43;;;;;;;7.70;3.72;;;3.60;80.60;;;;;;4987489;28;20045;-61
2023/03/15 03:51:10;;;;;;;6.57;3.70;;;3.70;80.40;;;;;;4983322;28;20042;-61
2023/03/15 03:53:36;;;;;;;9.68;4.20;;;3.70;80.30;;;;;;4981917;28;20042;-61
2023/03/15 03:56:04;;;;;;;7.35;3.97;;;3.70;80.00;;;;;;4982463;28;20329;-62
2023/03/15 03:58:30;;;;;;;8.13;3.80;;;3.70;80.00;;;;;;4983131;28;20034;-62
2023/03/15 04:00:55;;;;;;;8.82;4.00;;;3.80;80.00;;;;;;4981211;28;20977;-61
2023/03/15 04:03:26;;;;;;;9.57;3.50;;;3.80;79.90;;;;;;4981780;28;20049;-60
2023/03/15 04:05:56;;;;;;;8.90;3.53;;;3.80;79.50;;;;;;4984033;28;20041;-60
2023/03/15 04:08:22;;;;;;;9.00;3.63;;;3.80;79.40;;;;;;4981599;28;20038;-60
2023/03/15 04:10:52;;;;;;;10.73;3.17;;;3.80;79.40;;;;;;4982180;28;20498;-62
2023/03/15 04:13:19;;;;;;;7.72;3.22;;;3.80;79.50;;;;;;4981569;28;20530;-61
2023/03/15 04:15:46;;;;;;;11.20;3.60;;;3.80;80.40;;;;;;4981625;28;20061;-60
2023/03/15 04:18:12;;;;;;;8.45;3.42;;;3.80;79.20;;;;;;4981763;28;20502;-62
2023/03/15 04:20:37;;;;;;;10.75;3.55;;;3.80;79.10;;;;;;4981944;28;20121;-61
2023/03/15 04:23:06;;;;;;;6.50;3.00;;;3.80;79.10;;;;;;4981993;28;20068;-60
2023/03/15 04:25:32;;;;;;;10.70;3.25;;;3.80;78.90;;;;;;4981136;28;20058;-62
2023/03/15 04:27:57;;;;;;;6.45;2.65;;;3.80;78.80;;;;;;4985381;28;20477;-61
2023/03/15 04:30:27;;;;;;;6.47;2.70;;;3.70;78.70;;;;;;4977538;28;20038;-61
2023/03/15 04:33:02;;;;;;;5.80;2.38;;;3.70;78.60;;;;;;4978452;28;20753;-61
2023/03/15 04:35:33;;;;;;;7.07;2.00;;;3.70;78.50;;;;;;4980419;28;20064;-60
2023/03/15 04:37:59;;;;;;;7.85;2.38;;;3.70;78.50;;;;;;4977289;28;20034;-62
2023/03/15 04:40:25;;;;;;;5.60;2.15;;;3.70;78.50;;;;;;4979194;28;20405;-61
2023/03/15 04:42:54;;;;;;;5.85;2.25;;;3.70;78.50;;;;;;4978421;28;20064;-62
2023/03/15 04:45:23;;;;;;;8.05;2.42;;;3.70;78.40;;;;;;4977650;28;20038;-61
2023/03/15 04:47:50;;;;;;;6.63;2.70;;;3.70;78.00;;;;;;4978961;28;20038;-62
2023/03/15 04:50:16;;;;;;;6.45;2.20;;;3.70;77.60;;;;;;4986267;28;20034;-62
2023/03/15 04:52:41;;;;;;;5.70;2.08;;;3.70;77.60;;;;;;4979953;28;20435;-60
2023/03/15 04:55:08;;;;;;;5.10;2.20;;;3.70;77.50;;;;;;4982355;28;20065;-62
2023/03/15 04:57:34;;;;;;;10.38;3.28;;;3.70;77.40;;;;;;4976154;28;20062;-62
2023/03/15 04:59:59;;;;;;;8.07;3.05;;;3.70;77.60;;;;;;4974695;28;20038;-62
2023/03/15 05:02:25;;;;;;;10.82;3.67;;;3.70;77.80;;;;;;4983495;28;20057;-59
2023/03/15 05:04:51;;;;;;;9.40;2.45;;;3.70;77.80;;;;;;4977124;28;20140;-59
2023/03/15 05:07:16;;;;;;;5.03;2.15;;;3.70;77.80;;;;;;4984167;28;20038;-60
2023/03/15 05:09:44;;;;;;;3.55;2.13;;;3.80;77.80;;;;;;4979920;28;20774;-61
2023/03/15 05:12:10;;;;;;;3.90;2.03;;;3.80;77.90;;;;;;4979034;28;20118;-61
2023/03/15 05:14:36;;;;;;;7.32;3.10;;;3.80;77.80;;;;;;4975800;28;20026;-62
2023/03/15 05:17:02;;;;;;;8.02;3.47;;;3.80;77.60;;;;;;4986299;28;20034;-60
2023/03/15 05:19:28;;;;;;;9.20;2.95;;;3.80;77.60;;;;;;4981099;28;20040;-61
2023/03/15 05:21:54;;;;;;;10.98;4.60;;;3.80;77.40;;;;;;4983737;28;20034;-60
2023/03/15 05:24:21;;;;;;;9.27;5.07;;;3.80;77.30;;;;;;4976645;28;20045;-62
2023/03/15 05:26:46;;;;;;;8.15;4.38;;;3.80;77.20;;;;;;4975231;28;20030;-60
2023/03/15 05:29:13;;;;;;;9.57;3.58;;;3.80;77.00;;;;;;4980436;28;20577;-58
2023/03/15 05:31:39;;;;;;;9.52;4.30;;;3.80;76.90;;;;;;4975365;28;20034;-61
2023/03/15 05:34:05;;;;;;;12.05;3.95;;;3.80;76.90;;;;;;4981670;28;20121;-59
2023/03/15 05:36:31;;;;;;;9.27;3.40;;;3.70;76.80;;;;;;4983059;28;20125;-61
2023/03/15 05:38:57;;;;;;;11.82;3.22;;;3.70;76.90;;;;;;4981134;28;20043;-60
2023/03/15 05:41:23;;;;;;;10.45;5.97;;;3.70;76.90;;;;;;4981978;28;20043;-59
2023/03/15 05:43:51;;;;;;;7.60;3.28;;;3.70;76.70;;;;;;4984669;28;20038;-61
2023/03/15 05:46:17;;;;;;;8.50;2.58;;;3.70;76.70;;;;;;4985086;28;20544;-59
2023/03/15 05:48:42;;;;;;;8.20;3.75;;;3.70;76.70;;;;;;4983380;28;20066;-61
2023/03/15 05:51:08;;;;;;;6.20;2.40;;;3.70;76.70;;;;;;4982179;28;20046;-60
2023/03/15 05:53:34;;;;;;;5.18;2.10;;;3.60;76.80;;;;;;4980411;28;20037;-57
2023/03/15 05:56:00;;;;;;;5.45;2.47;;;3.60;76.90;;;;;;4982074;28;20092;-61
2023/03/15 05:58:26;;;;;;;5.82;2.47;;;3.60;76.80;;;;;;4981031;28;20081;-60
2023/03/15 06:00:51;;;;;;;5.65;2.03;;;3.60;76.70;;;;;;4976299;28;20042;-60
2023/03/15 06:03:17;;;;;;;7.45;2.53;;;3.60;76.70;;;;;;4979899;28;20060;-60
2023/03/15 06:05:42;;;;;;;7.03;2.33;;;3.60;76.70;;;;;;4981994;28;20105;-62
2023/03/15 06:08:09;;;;;;;18.70;8.15;;;3.60;76.70;;;;;;4980060;28;20437;-61
2023/03/15 06:10:34;;;;;;;7.70;3.00;;;3.60;76.60;;;;;;4982844;28;20489;-58
2023/03/15 06:13:00;;;;;;;10.85;2.60;;;3.60;76.60;;;;;;4980167;28;20041;-59
2023/03/15 06:15:26;;;;;;;8.82;2.38;;;3.50;76.70;;;;;;4980773;28;20046;-60
2023/03/15 06:17:52;;;;;;;6.15;2.50;;;3.50;76.80;;;;;;4982438;28;20034;-60
2023/03/15 06:20:18;;;;;;;6.72;2.47;;;3.50;76.90;;;;;;4981270;28;20042;-59
2023/03/15 06:22:43;;;;;;;6.13;2.45;;;3.40;77.00;;;;;;4981286;28;20405;-60
2023/03/15 06:25:09;;;;;;;5.75;2.20;;;3.40;77.10;;;;;;4979893;28;20433;-59
2023/03/15 06:27:36;;;;;;;7.80;3.22;;;3.30;77.20;;;;;;4978271;28;20069;-60
2023/03/15 06:30:03;;;;;;;12.20;3.70;;;3.40;77.40;;;;;;4980308;28;20098;-60
2023/03/15 06:32:28;;;;;;;7.53;2.88;;;3.30;77.30;;;;;;4982884;28;20486;-61
2023/03/15 06:34:54;;;;;;;9.38;3.65;;;3.30;77.40;;;;;;4977195;28;20046;-61
2023/03/15 06:37:20;;;;;;;10.10;5.57;;;3.30;77.50;;;;;;4976759;28;20088;-61
2023/03/15 06:39:46;;;;;;;10.52;4.43;;;3.40;77.60;;;;;;4978326;28;20498;-61
2023/03/15 06:42:12;;;;;;;8.95;4.20;;;3.40;77.80;;;;;;4982499;28;20320;-61
2023/03/15 06:44:38;;;;;;;9.82;3.50;;;3.40;78.00;;;;;;4972805;28;20602;-60
2023/03/15 06:47:04;;;;;;;5.40;2.22;;;3.40;77.90;;;;;;4973565;28;20041;-61
2023/03/15 06:49:31;;;;;;;4.90;2.55;;;3.40;77.90;;;;;;4980220;28;20050;-60
2023/03/15 06:51:56;;;;;;;5.47;2.65;;;3.40;77.80;;;;;;4979334;28;20060;-60
2023/03/15 06:54:23;;;;;;;6.47;2.55;;;3.40;77.90;;;;;;4981146;28;20509;-60
2023/03/15 06:56:48;;;;;;;4.95;2.10;;;3.40;77.90;;;;;;4979354;28;20046;-61
2023/03/15 06:59:14;;;;;;;5.38;2.42;;;3.40;77.90;;;;;;4980694;28;20030;-60
2023/03/15 07:01:40;;;;;;;5.43;2.40;;;3.50;78.00;;;;;;4982584;28;20757;-61
2023/03/15 07:04:06;;;;;;;5.00;2.50;;;3.50;77.80;;;;;;4979282;28;20046;-60
2023/03/15 07:06:33;;;;;;;8.65;2.40;;;3.50;77.70;;;;;;4980315;28;20403;-60
2023/03/15 07:08:58;;;;;;;6.72;2.67;;;3.50;77.70;;;;;;4981003;28;20042;-60
2023/03/15 07:11:24;;;;;;;3.45;2.40;;;3.50;77.70;;;;;;4979888;28;20042;-62
2023/03/15 07:13:49;;;;;;;4.85;2.38;;;3.60;77.80;;;;;;4979228;28;20038;-61
2023/03/15 07:16:15;;;;;;;3.85;2.60;;;3.60;77.80;;;;;;4973671;28;20043;-61
2023/03/15 07:18:41;;;;;;;5.18;2.20;;;3.60;77.60;;;;;;4982050;28;20042;-60
2023/03/15 07:21:07;;;;;;;6.22;2.17;;;3.70;77.60;;;;;;4980351;28;20042;-61
2023/03/15 07:23:32;;;;;;;6.93;2.10;;;3.70;77.50;;;;;;4975567;28;20387;-61
2023/03/15 07:25:58;;;;;;;7.88;2.85;;;3.70;77.40;;;;;;4976805;28;20058;-62
2023/03/15 07:28:25;;;;;;;6.45;2.30;;;3.70;77.20;;;;;;4977462;28;20030;-62
2023/03/15 07:30:54;;;;;;;8.00;2.50;;;3.80;77.20;;;;;;4976746;28;20053;-61
2023/03/15 07:33:21;;;;;;;12.98;2.60;;;3.80;77.10;;;;;;4981977;28;20030;-62
2023/03/15 07:35:48;;;;;;;6.30;2.47;;;3.80;77.00;;;;;;4975525;28;20538;-60
2023/03/15 07:38:13;;;;;;;4.90;2.60;;;3.80;77.10;;;;;;4979781;28;20053;-62
2023/03/15 07:40:39;;;;;;;6.50;2.50;;;3.90;78.00;;;;;;4975142;28;20050;-60
2023/03/15 07:43:05;;;;;;;6.22;2.40;;;3.90;77.00;;;;;;4985787;28;20359;-61
2023/03/15 07:45:31;;;;;;;7.47;2.85;;;3.90;76.80;;;;;;4987150;28;20600;-61
2023/03/15 07:47:56;;;;;;;7.15;2.40;;;4.00;76.70;;;;;;4986819;28;20145;-61
2023/03/15 07:50:22;;;;;;;6.13;2.53;;;4.00;76.60;;;;;;4987071;28;20104;-60
2023/03/15 07:52:48;;;;;;;6.68;2.55;;;4.00;76.60;;;;;;4985106;28;20113;-61
2023/03/15 07:55:13;;;;;;;6.15;2.40;;;4.10;76.40;;;;;;4980046;28;20126;-62
2023/03/15 07:57:39;;;;;;;5.53;2.58;;;4.10;76.40;;;;;;4978333;28;20042;-58
2023/03/15 08:00:05;;;;;;;4.80;2.25;;;4.10;76.40;;;;;;4975008;28;20042;-60
2023/03/15 08:02:31;;;;;;;8.25;2.60;;;4.10;76.00;;;;;;4971882;28;20034;-61
2023/03/15 08:04:57;;;;;;;8.38;2.45;;;4.20;75.50;;;;;;4980186;28;20425;-61
2023/03/15 08:07:23;;;;;;;5.60;2.05;;;4.20;75.40;;;;;;4980976;28;20042;-62
2023/03/15 08:09:48;;;;;;;4.13;2.17;;;4.30;75.30;;;;;;4970689;28;20049;-62
2023/03/15 08:12:14;;;;;;;10.98;2.45;;;4.30;75.30;;;;;;4953658;28;20026;-61
2023/03/15 08:14:40;;;;;;;4.75;2.20;;;4.30;75.30;;;;;;4966237;28;20061;-61
2023/03/15 08:17:05;;;;;;;6.47;2.45;;;4.40;75.20;;;;;;4973733;28;20100;-61
2023/03/15 08:19:31;;;;;;;7.03;1.92;;;4.40;74.80;;;;;;4966729;28;20082;-61
2023/03/15 08:21:57;;;;;;;6.65;2.15;;;4.50;74.80;;;;;;4968685;28;20339;-62
2023/03/15 08:24:23;;;;;;;5.47;1.77;;;4.50;74.60;;;;;;4973721;28;20510;-61
2023/03/15 08:26:48;;;;;;;7.28;1.88;;;4.60;74.20;;;;;;4972022;28;20127;-61
2023/03/15 08:29:14;;;;;;;8.88;2.30;;;4.60;73.80;;;;;;4974109;28;20193;-62
2023/03/15 08:31:40;;;;;;;8.23;2.22;;;4.70;73.10;;;;;;4974212;28;20049;-61
2023/03/15 08:34:06;;;;;;;5.93;1.90;;;4.70;72.70;;;;;;4979032;28;20450;-61
2023/03/15 08:36:31;;;;;;;7.75;2.03;;;4.70;73.30;;;;;;4978753;28;20098;-62
2023/03/15 08:38:57;;;;;;;5.25;2.05;;;4.80;73.40;;;;;;4971197;28;20138;-62
2023/03/15 08:41:23;;;;;;;4.97;1.75;;;4.80;73.40;;;;;;4994456;28;20122;-62
2023/03/15 08:43:48;;;;;;;5.55;1.80;;;4.90;73.40;;;;;;4978994;28;20453;-62
2023/03/15 08:46:14;;;;;;;8.40;1.80;;;4.90;72.60;;;;;;4980525;28;20039;-62
2023/03/15 08:48:40;;;;;;;4.35;1.42;;;5.00;72.50;;;;;;4973388;28;20153;-61
2023/03/15 08:51:07;;;;;;;3.67;1.50;;;5.00;72.70;;;;;;4976135;28;20038;-62
2023/03/15 08:53:33;;;;;;;3.45;1.42;;;5.10;72.50;;;;;;4979470;28;20484;-61
2023/03/15 08:55:59;;;;;;;12.02;1.95;;;5.10;71.30;;;;;;4969893;28;20046;-62
2023/03/15 08:58:25;;;;;;;3.05;1.33;;;5.20;71.60;;;;;;4980440;28;20132;-62
2023/03/15 09:00:51;;;;;;;4.63;1.50;;;5.20;70.70;;;;;;4978237;28;20096;-61
2023/03/15 09:03:21;;;;;;;5.03;1.40;;;5.20;70.80;;;;;;4973887;28;20038;-62
2023/03/15 09:05:47;;;;;;;6.32;1.30;;;5.30;71.40;;;;;;4964310;28;20137;-62
2023/03/15 09:08:13;;;;;;;5.80;1.38;;;5.40;71.40;;;;;;4976633;28;20316;-59
2023/03/15 09:10:39;;;;;;;4.65;1.42;;;5.40;71.30;;;;;;4958760;28;20039;-63
2023/03/15 09:13:04;;;;;;;3.22;1.13;;;5.50;70.60;;;;;;4968585;28;20097;-61
2023/03/15 09:15:30;;;;;;;4.28;1.50;;;5.50;70.90;;;;;;4978629;28;20097;-61
2023/03/15 09:17:56;;;;;;;4.07;1.35;;;5.60;71.10;;;;;;4974936;28;20050;-60
2023/03/15 09:20:26;;;;;;;5.30;1.20;;;5.70;71.20;;;;;;4967038;28;20524;-59
2023/03/15 09:22:55;;;;;;;3.08;1.13;;;5.80;70.70;;;;;;4963849;28;20046;-60
2023/03/15 09:25:22;;;;;;;2.17;1.40;;;5.80;70.50;;;;;;4978910;28;20391;-59
2023/03/15 09:27:47;;;;;;;2.45;1.30;;;5.90;70.10;;;;;;4976179;28;20042;-60
2023/03/15 09:30:14;;;;;;;3.55;1.30;;;5.90;69.50;;;;;;4979770;28;20054;-61
2023/03/15 09:32:39;;;;;;;2.15;1.40;;;6.00;69.10;;;;;;4980816;28;20153;-59
2023/03/15 09:35:09;;;;;;;6.03;1.27;;;6.10;68.90;;;;;;4977221;28;20048;-60
2023/03/15 09:37:34;;;;;;;4.47;1.30;;;6.10;69.20;;;;;;4983380;28;20034;-62
2023/03/15 09:40:00;;;;;;;2.15;1.15;;;6.20;69.40;;;;;;4979116;28;20461;-60
2023/03/15 09:43:04;;;;;;;2.97;1.48;;;6.20;69.30;;;;;;4980741;28;20046;-61
2023/03/15 09:45:52;;;;;;;4.35;1.15;;;6.30;68.90;;;;;;4984710;28;20037;-60
2023/03/15 09:48:46;;;;;;;2.90;1.00;;;6.40;69.40;;;;;;4983795;28;20387;-61
2023/03/15 09:51:30;;;;;;;4.38;1.13;;;6.60;68.60;;;;;;4981885;28;20096;-62
2023/03/15 09:53:59;;;;;;;3.42;0.95;;;6.60;67.90;;;;;;4982177;28;20035;-59
2023/03/15 09:56:31;;;;;;;2.53;0.90;;;6.70;67.40;;;;;;4984492;28;20042;-62
2023/03/15 09:59:00;;;;;;;3.05;1.10;;;6.80;67.10;;;;;;4983392;28;20121;-60
2023/03/15 10:01:40;;;;;;;2.08;0.88;;;6.90;67.10;;;;;;4977917;28;20419;-61
2023/03/15 10:04:29;;;;;;;1.45;0.80;;;7.00;66.10;;;;;;4984533;28;20038;-60
2023/03/15 10:06:57;;;;;;;3.78;1.08;;;7.00;65.20;;;;;;4977904;28;20043;-60
2023/03/15 10:09:26;;;;;;;0.80;0.80;;;7.10;66.40;;;;;;4973225;28;20039;-63
2023/03/15 10:12:07;;;;;;;1.42;0.70;;;7.20;65.50;;;;;;4969649;28;20684;-60
2023/03/15 10:14:36;;;;;;;1.05;0.93;;;7.20;64.20;;;;;;4976232;28;20453;-61
2023/03/15 10:17:13;;;;;;;1.55;0.65;;;7.20;64.60;;;;;;4967805;28;20096;-61
2023/03/15 10:19:48;;;;;;;2.38;0.73;;;7.30;64.30;;;;;;4974689;28;20073;-59
2023/03/15 10:22:26;;;;;;;1.83;0.80;;;7.30;63.70;;;;;;4973631;28;20092;-61
2023/03/15 10:25:19;;;;;;;4.95;1.00;;;7.30;62.90;;;;;;4974148;28;20373;-62
2023/03/15 10:27:52;;;;;;;1.42;0.73;;;7.30;62.10;;;;;;4972370;28;20470;-60
2023/03/15 10:30:24;;;;;;;4.57;1.00;;;7.40;63.40;;;;;;4972756;28;20043;-61
2023/03/15 10:33:04;;;;;;;2.85;1.10;;;7.30;64.50;;;;;;4982833;28;20054;-61
2023/03/15 10:35:30;;;;;;;2.35;1.25;;;7.40;63.00;;;;;;4974098;28;20128;-60
2023/03/15 10:37:57;;;;;;;3.22;1.20;;;7.50;64.90;;;;;;4967093;28;20045;-61
2023/03/15 10:41:04;;;;;;;5.68;1.10;;;7.50;64.10;;;;;;4974645;28;20039;-62
2023/03/15 10:43:34;;;;;;;3.55;0.88;;;7.60;62.70;;;;;;4936254;28;20043;-60
2023/03/15 10:46:10;;;;;;;3.47;1.10;;;7.70;63.60;;;;;;4936893;28;20468;-61
2023/03/15 10:48:56;;;;;;;1.20;0.90;;;7.80;63.60;;;;;;4958996;28;20286;-61
2023/03/15 10:51:36;;;;;;;3.05;0.70;;;7.80;61.70;;;;;;4973042;28;20526;-60
2023/03/15 10:54:22;;;;;;;2.00;0.70;;;7.90;61.70;;;;;;4976927;28;20073;-60
2023/03/15 10:57:14;;;;;;;2.28;0.60;;;7.90;60.50;;;;;;4978935;28;20030;-62
2023/03/15 10:59:56;;;;;;;1.00;0.70;;;7.90;59.80;;;;;;4977037;28;20065;-60
2023/03/15 11:02:23;;;;;;;2.88;0.70;;;8.00;60.30;;;;;;4969506;28;20039;-62
2023/03/15 11:05:15;;;;;;;0.90;0.75;;;8.00;60.80;;;;;;4977643;28;20508;-60
2023/03/15 11:07:55;;;;;;;1.95;0.60;;;8.10;60.20;;;;;;4973664;28;20072;-58
2023/03/15 11:10:24;;;;;;;1.40;0.70;;;8.20;59.80;;;;;;4983619;28;20042;-60
2023/03/15 11:12:49;;;;;;;1.00;0.80;;;8.30;60.30;;;;;;4981496;28;20034;-60
2023/03/15 11:15:17;;;;;;;3.15;1.00;;;8.30;60.10;;;;;;4983086;28;20045;-60
2023/03/15 11:17:46;;;;;;;3.17;0.93;;;8.40;60.00;;;;;;4979242;28;20533;-59
2023/03/15 11:20:38;;;;;;;3.17;0.98;;;8.40;59.50;;;;;;4984738;28;20041;-61
2023/03/15 11:23:14;;;;;;;2.40;0.70;;;8.50;57.60;;;;;;4984465;28;20038;-60
2023/03/15 11:25:40;;;;;;;3.15;2.03;;;8.50;58.60;;;;;;4983105;28;20023;-61
2023/03/15 11:28:21;;;;;;;4.95;1.10;;;8.60;59.20;;;;;;4983759;28;20035;-59
2023/03/15 11:30:47;;;;;;;2.03;0.90;;;8.60;57.80;;;;;;4983266;28;20058;-59
2023/03/15 11:33:34;;;;;;;2.92;1.10;;;8.60;58.60;;;;;;4980356;28;20045;-60
2023/03/15 11:36:04;;;;;;;1.27;0.80;;;8.70;58.00;;;;;;4984087;28;20637;-59
2023/03/15 11:38:35;;;;;;;1.38;1.00;;;8.70;58.10;;;;;;4983791;28;20109;-62
2023/03/15 11:41:10;;;;;;;1.52;0.77;;;8.80;57.80;;;;;;4981009;28;20038;-61
2023/03/15 11:43:56;;;;;;;1.63;0.80;;;8.80;58.10;;;;;;4981333;28;20044;-58
2023/03/15 11:46:28;;;;;;;1.33;0.98;;;8.90;57.10;;;;;;4986285;28;20085;-60
2023/03/15 11:49:00;;;;;;;4.28;1.15;;;8.90;56.40;;;;;;4982815;28;20049;-62
2023/03/15 11:51:28;;;;;;;2.92;0.90;;;8.90;54.30;;;;;;4987231;28;20510;-60
2023/03/15 11:53:59;;;;;;;1.30;0.85;;;8.90;56.50;;;;;;4985731;28;20540;-61
2023/03/15 11:56:48;;;;;;;2.55;0.80;;;8.90;54.50;;;;;;4988141;28;20409;-59
2023/03/15 11:59:27;;;;;;;4.55;1.08;;;8.90;53.30;;;;;;4985924;28;20050;-59
2023/03/15 12:01:59;;;;;;;2.50;0.80;;;8.80;54.80;;;;;;4986041;28;20104;-59
2023/03/15 12:04:28;;;;;;;1.85;0.80;;;8.80;55.50;;;;;;4983347;28;20114;-58
2023/03/15 12:06:55;;;;;;;3.03;0.90;;;8.80;56.10;;;;;;4981297;28;20647;-61
2023/03/15 12:09:36;;;;;;;1.73;1.13;;;8.90;56.90;;;;;;4981809;28;20066;-61
2023/03/15 12:12:05;;;;;;;1.85;0.90;;;8.90;57.00;;;;;;4979162;28;20034;-60
2023/03/15 12:14:36;;;;;;;1.70;0.90;;;9.00;57.10;;;;;;4983243;28;20038;-61
2023/03/15 12:17:23;;;;;;;2.72;0.70;;;9.10;57.00;;;;;;4986332;28;20053;-60
2023/03/15 12:20:17;;;;;;;1.85;0.60;;;9.20;53.90;;;;;;4984779;28;20107;-57
2023/03/15 12:22:47;;;;;;;1.05;0.65;;;9.20;51.40;;;;;;4984555;28;20504;-59
2023/03/15 12:25:30;;;;;;;0.90;0.60;;;9.30;52.50;;;;;;4987084;28;20058;-58
2023/03/15 12:27:57;;;;;;;0.75;0.60;;;9.30;52.80;;;;;;4987941;28;20027;-61
2023/03/15 12:30:40;;;;;;;1.48;0.65;;;9.30;55.00;;;;;;4983401;28;20034;-60
2023/03/15 12:33:15;;;;;;;2.38;0.60;;;9.30;51.10;;;;;;4983977;28;20042;-58
2023/03/15 12:35:41;;;;;;;1.13;0.65;;;9.30;50.80;;;;;;4987541;28;20038;-60
2023/03/15 12:38:22;;;;;;;0.77;0.70;;;9.30;53.00;;;;;;4987870;28;20150;-62
2023/03/15 12:40:52;;;;;;;1.20;0.65;;;9.30;52.20;;;;;;4985354;28;21484;-62
2023/03/15 12:43:44;;;;;;;0.98;0.50;;;9.30;52.40;;;;;;4985399;28;20125;-60
2023/03/15 12:46:39;;;;;;;1.73;0.60;;;9.20;52.90;;;;;;4986635;28;20042;-62
2023/03/15 12:49:29;;;;;;;3.72;0.50;;;9.20;52.90;;;;;;4961760;28;20050;-60
2023/03/15 12:51:56;;;;;;;2.00;0.60;;;9.30;52.90;;;;;;4986751;28;20113;-62
2023/03/15 12:54:24;;;;;;;3.78;0.57;;;9.30;54.00;;;;;;4987579;28;20109;-61
2023/03/15 12:57:01;;;;;;;1.05;0.40;;;9.30;53.50;;;;;;4987338;28;20042;-59
2023/03/15 12:59:42;;;;;;;0.75;0.30;;;9.40;52.50;;;;;;4985529;28;20497;-61
2023/03/15 13:02:35;;;;;;;2.92;0.40;;;9.50;52.00;;;;;;4984786;28;20076;-60
2023/03/15 13:05:12;;;;;;;0.50;0.30;;;9.50;51.60;;;;;;4986142;28;20035;-60
2023/03/15 13:07:55;;;;;;;0.68;0.50;;;9.50;50.10;;;;;;4978667;28;20027;-60